sensor_id;sensor_type;location;lat;lon;timestamp;temperature;humidity
73112;HTU21D;61301;51.956;5.876;2023-05-19T00:01:21;14.95;48.35
73112;HTU21D;61301;51.956;5.876;2023-05-19T00:03:53;14.87;48.74
73112;HTU21D;61301;51.956;5.876;2023-05-19T00:06:24;14.83;48.57
73112;HTU21D;61301;51.956;5.876;2023-05-19T00:09:02;14.75;49.02
73112;HTU21D;61301;51.956;5.876;2023-05-19T00:11:28;14.74;48.63
73112;HTU21D;61301;51.956;5.876;2023-05-19T00:13:57;14.73;48.40
73112;HTU21D;61301;51.956;5.876;2023-05-19T00:16:25;14.83;48.15
73112;HTU21D;61301;51.956;5.876;2023-05-19T00:18:51;14.88;47.99
73112;HTU21D;61301;51.956;5.876;2023-05-19T00:21:19;14.88;48.22
73112;HTU21D;61301;51.956;5.876;2023-05-19T00:23:45;14.88;48.36
73112;HTU21D;61301;51.956;5.876;2023-05-19T00:26:11;14.84;48.35
73112;HTU21D;61301;51.956;5.876;2023-05-19T00:28:39;14.83;48.58
73112;HTU21D;61301;51.956;5.876;2023-05-19T00:31:05;14.75;48.86
73112;HTU21D;61301;51.956;5.876;2023-05-19T00:33:32;14.73;49.31
73112;HTU21D;61301;51.956;5.876;2023-05-19T00:35:59;14.72;49.34
73112;HTU21D;61301;51.956;5.876;2023-05-19T00:38:29;14.63;49.44
73112;HTU21D;61301;51.956;5.876;2023-05-19T00:40:55;14.63;49.84
73112;HTU21D;61301;51.956;5.876;2023-05-19T00:43:21;14.56;49.98
73112;HTU21D;61301;51.956;5.876;2023-05-19T00:45:47;14.48;50.75
73112;HTU21D;61301;51.956;5.876;2023-05-19T00:48:13;14.44;50.66
73112;HTU21D;61301;51.956;5.876;2023-05-19T00:50:40;14.51;50.33
73112;HTU21D;61301;51.956;5.876;2023-05-19T00:53:06;14.52;50.57
73112;HTU21D;61301;51.956;5.876;2023-05-19T00:55:34;14.49;50.38
73112;HTU21D;61301;51.956;5.876;2023-05-19T00:58:03;14.48;50.83
73112;HTU21D;61301;51.956;5.876;2023-05-19T01:00:29;14.39;51.24
73112;HTU21D;61301;51.956;5.876;2023-05-19T01:02:55;14.39;50.79
73112;HTU21D;61301;51.956;5.876;2023-05-19T01:05:21;14.33;51.53
73112;HTU21D;61301;51.956;5.876;2023-05-19T01:07:48;14.25;51.34
73112;HTU21D;61301;51.956;5.876;2023-05-19T01:10:19;14.23;51.69
73112;HTU21D;61301;51.956;5.876;2023-05-19T01:12:45;14.23;51.47
73112;HTU21D;61301;51.956;5.876;2023-05-19T01:15:12;14.18;52.05
73112;HTU21D;61301;51.956;5.876;2023-05-19T01:17:47;14.13;52.44
73112;HTU21D;61301;51.956;5.876;2023-05-19T01:20:19;14.09;53.15
73112;HTU21D;61301;51.956;5.876;2023-05-19T01:28:30;13.97;53.37
73112;HTU21D;61301;51.956;5.876;2023-05-19T01:31:00;13.91;53.62
73112;HTU21D;61301;51.956;5.876;2023-05-19T01:33:28;13.85;53.50
73112;HTU21D;61301;51.956;5.876;2023-05-19T01:36:02;13.88;53.29
73112;HTU21D;61301;51.956;5.876;2023-05-19T01:38:29;13.90;53.24
73112;HTU21D;61301;51.956;5.876;2023-05-19T01:40:56;13.92;53.26
73112;HTU21D;61301;51.956;5.876;2023-05-19T01:43:24;13.90;53.84
73112;HTU21D;61301;51.956;5.876;2023-05-19T01:45:52;13.84;53.62
73112;HTU21D;61301;51.956;5.876;2023-05-19T01:48:18;13.81;53.56
73112;HTU21D;61301;51.956;5.876;2023-05-19T01:50:45;13.79;53.52
73112;HTU21D;61301;51.956;5.876;2023-05-19T01:53:11;13.79;53.96
73112;HTU21D;61301;51.956;5.876;2023-05-19T01:55:49;13.79;54.01
73112;HTU21D;61301;51.956;5.876;2023-05-19T01:58:38;13.77;53.64
73112;HTU21D;61301;51.956;5.876;2023-05-19T02:04:19;13.68;54.11
73112;HTU21D;61301;51.956;5.876;2023-05-19T02:10:10;13.56;54.55
73112;HTU21D;61301;51.956;5.876;2023-05-19T02:12:39;13.53;54.44
73112;HTU21D;61301;51.956;5.876;2023-05-19T02:15:10;13.56;54.22
73112;HTU21D;61301;51.956;5.876;2023-05-19T02:17:39;13.56;54.01
73112;HTU21D;61301;51.956;5.876;2023-05-19T02:20:07;13.54;54.23
73112;HTU21D;61301;51.956;5.876;2023-05-19T02:22:36;13.52;54.24
73112;HTU21D;61301;51.956;5.876;2023-05-19T02:25:02;13.45;54.62
73112;HTU21D;61301;51.956;5.876;2023-05-19T02:27:35;13.43;54.35
73112;HTU21D;61301;51.956;5.876;2023-05-19T02:30:03;13.36;54.49
73112;HTU21D;61301;51.956;5.876;2023-05-19T02:32:31;13.39;54.20
73112;HTU21D;61301;51.956;5.876;2023-05-19T02:34:57;13.40;54.36
73112;HTU21D;61301;51.956;5.876;2023-05-19T02:37:23;13.43;54.04
73112;HTU21D;61301;51.956;5.876;2023-05-19T02:39:49;13.47;54.32
73112;HTU21D;61301;51.956;5.876;2023-05-19T02:42:15;13.47;53.94
73112;HTU21D;61301;51.956;5.876;2023-05-19T02:44:43;13.47;53.91
73112;HTU21D;61301;51.956;5.876;2023-05-19T02:47:09;13.43;54.07
73112;HTU21D;61301;51.956;5.876;2023-05-19T02:49:35;13.45;54.17
73112;HTU21D;61301;51.956;5.876;2023-05-19T02:52:04;13.41;54.27
73112;HTU21D;61301;51.956;5.876;2023-05-19T02:54:32;13.36;54.23
73112;HTU21D;61301;51.956;5.876;2023-05-19T02:56:58;13.33;54.36
73112;HTU21D;61301;51.956;5.876;2023-05-19T02:59:25;13.32;54.57
73112;HTU21D;61301;51.956;5.876;2023-05-19T03:01:56;13.26;54.67
73112;HTU21D;61301;51.956;5.876;2023-05-19T03:04:22;13.26;54.46
73112;HTU21D;61301;51.956;5.876;2023-05-19T03:06:48;13.20;55.21
73112;HTU21D;61301;51.956;5.876;2023-05-19T03:09:15;13.17;55.17
73112;HTU21D;61301;51.956;5.876;2023-05-19T03:11:41;13.10;55.55
73112;HTU21D;61301;51.956;5.876;2023-05-19T03:14:07;13.05;55.53
73112;HTU21D;61301;51.956;5.876;2023-05-19T03:16:36;13.02;55.34
73112;HTU21D;61301;51.956;5.876;2023-05-19T03:19:02;13.01;55.46
73112;HTU21D;61301;51.956;5.876;2023-05-19T03:21:28;13.02;55.20
73112;HTU21D;61301;51.956;5.876;2023-05-19T03:23:55;13.02;55.76
73112;HTU21D;61301;51.956;5.876;2023-05-19T03:26:21;13.01;55.45
73112;HTU21D;61301;51.956;5.876;2023-05-19T03:28:47;12.99;55.56
73112;HTU21D;61301;51.956;5.876;2023-05-19T03:31:13;12.95;56.00
73112;HTU21D;61301;51.956;5.876;2023-05-19T03:33:40;12.91;56.08
73112;HTU21D;61301;51.956;5.876;2023-05-19T03:36:06;12.93;56.61
73112;HTU21D;61301;51.956;5.876;2023-05-19T03:38:36;12.92;56.52
73112;HTU21D;61301;51.956;5.876;2023-05-19T03:41:02;12.92;56.66
73112;HTU21D;61301;51.956;5.876;2023-05-19T03:43:28;12.87;56.84
73112;HTU21D;61301;51.956;5.876;2023-05-19T03:45:59;12.84;57.29
73112;HTU21D;61301;51.956;5.876;2023-05-19T03:48:44;12.78;57.29
73112;HTU21D;61301;51.956;5.876;2023-05-19T03:51:22;12.71;57.98
73112;HTU21D;61301;51.956;5.876;2023-05-19T03:53:50;12.70;57.66
73112;HTU21D;61301;51.956;5.876;2023-05-19T03:56:18;12.72;57.59
73112;HTU21D;61301;51.956;5.876;2023-05-19T03:58:45;12.74;57.42
73112;HTU21D;61301;51.956;5.876;2023-05-19T04:01:11;12.76;57.38
73112;HTU21D;61301;51.956;5.876;2023-05-19T04:03:37;12.77;57.24
73112;HTU21D;61301;51.956;5.876;2023-05-19T04:06:03;12.82;57.60
73112;HTU21D;61301;51.956;5.876;2023-05-19T04:08:31;12.84;57.27
73112;HTU21D;61301;51.956;5.876;2023-05-19T04:10:57;12.80;57.65
73112;HTU21D;61301;51.956;5.876;2023-05-19T04:13:23;12.86;57.47
73112;HTU21D;61301;51.956;5.876;2023-05-19T04:15:49;12.86;57.46
73112;HTU21D;61301;51.956;5.876;2023-05-19T04:18:15;12.88;57.28
73112;HTU21D;61301;51.956;5.876;2023-05-19T04:20:41;12.97;57.10
73112;HTU21D;61301;51.956;5.876;2023-05-19T04:23:07;12.96;57.44
73112;HTU21D;61301;51.956;5.876;2023-05-19T04:25:33;12.96;57.46
73112;HTU21D;61301;51.956;5.876;2023-05-19T04:28:01;12.93;57.84
73112;HTU21D;61301;51.956;5.876;2023-05-19T04:30:28;12.96;57.54
73112;HTU21D;61301;51.956;5.876;2023-05-19T04:32:55;13.00;57.72
73112;HTU21D;61301;51.956;5.876;2023-05-19T04:35:23;13.03;57.67
73112;HTU21D;61301;51.956;5.876;2023-05-19T04:37:50;13.06;57.40
73112;HTU21D;61301;51.956;5.876;2023-05-19T04:40:19;13.11;57.13
73112;HTU21D;61301;51.956;5.876;2023-05-19T04:42:49;13.17;57.06
73112;HTU21D;61301;51.956;5.876;2023-05-19T04:45:17;13.21;56.82
73112;HTU21D;61301;51.956;5.876;2023-05-19T04:47:45;13.17;57.16
73112;HTU21D;61301;51.956;5.876;2023-05-19T04:50:13;13.20;57.10
73112;HTU21D;61301;51.956;5.876;2023-05-19T04:52:39;13.26;56.82
73112;HTU21D;61301;51.956;5.876;2023-05-19T04:55:07;13.33;56.74
73112;HTU21D;61301;51.956;5.876;2023-05-19T04:57:36;13.39;56.58
73112;HTU21D;61301;51.956;5.876;2023-05-19T05:00:03;13.50;56.11
73112;HTU21D;61301;51.956;5.876;2023-05-19T05:02:37;13.53;56.09
73112;HTU21D;61301;51.956;5.876;2023-05-19T05:05:04;13.64;55.97
73112;HTU21D;61301;51.956;5.876;2023-05-19T05:07:31;13.71;55.67
73112;HTU21D;61301;51.956;5.876;2023-05-19T05:09:57;13.76;55.63
73112;HTU21D;61301;51.956;5.876;2023-05-19T05:12:23;13.83;55.29
73112;HTU21D;61301;51.956;5.876;2023-05-19T05:14:50;13.88;55.14
73112;HTU21D;61301;51.956;5.876;2023-05-19T05:17:17;13.94;55.00
73112;HTU21D;61301;51.956;5.876;2023-05-19T05:19:44;13.99;54.94
73112;HTU21D;61301;51.956;5.876;2023-05-19T05:22:11;14.06;54.66
73112;HTU21D;61301;51.956;5.876;2023-05-19T05:24:39;14.13;54.39
73112;HTU21D;61301;51.956;5.876;2023-05-19T05:27:05;14.20;54.18
73112;HTU21D;61301;51.956;5.876;2023-05-19T05:29:33;14.29;54.01
73112;HTU21D;61301;51.956;5.876;2023-05-19T05:32:00;14.38;53.81
73112;HTU21D;61301;51.956;5.876;2023-05-19T05:34:27;14.50;53.52
73112;HTU21D;61301;51.956;5.876;2023-05-19T05:36:53;14.60;53.30
73112;HTU21D;61301;51.956;5.876;2023-05-19T05:39:20;14.67;53.18
73112;HTU21D;61301;51.956;5.876;2023-05-19T05:41:49;14.75;52.94
73112;HTU21D;61301;51.956;5.876;2023-05-19T05:44:16;14.87;52.72
73112;HTU21D;61301;51.956;5.876;2023-05-19T05:46:44;14.98;52.46
73112;HTU21D;61301;51.956;5.876;2023-05-19T05:49:10;15.07;51.73
73112;HTU21D;61301;51.956;5.876;2023-05-19T05:51:40;15.12;51.72
73112;HTU21D;61301;51.956;5.876;2023-05-19T05:54:10;15.16;51.13
73112;HTU21D;61301;51.956;5.876;2023-05-19T05:56:41;15.21;51.04
73112;HTU21D;61301;51.956;5.876;2023-05-19T05:59:09;15.30;50.91
73112;HTU21D;61301;51.956;5.876;2023-05-19T06:01:36;15.29;50.51
73112;HTU21D;61301;51.956;5.876;2023-05-19T06:04:04;15.38;50.23
73112;HTU21D;61301;51.956;5.876;2023-05-19T06:06:30;15.44;49.85
73112;HTU21D;61301;51.956;5.876;2023-05-19T06:08:58;15.47;49.93
73112;HTU21D;61301;51.956;5.876;2023-05-19T06:11:24;15.55;49.98
73112;HTU21D;61301;51.956;5.876;2023-05-19T06:13:51;15.60;49.58
73112;HTU21D;61301;51.956;5.876;2023-05-19T06:16:35;15.74;48.52
73112;HTU21D;61301;51.956;5.876;2023-05-19T06:19:01;15.73;48.24
73112;HTU21D;61301;51.956;5.876;2023-05-19T06:21:27;15.80;48.40
73112;HTU21D;61301;51.956;5.876;2023-05-19T06:23:53;15.92;48.29
73112;HTU21D;61301;51.956;5.876;2023-05-19T06:26:19;16.10;47.61
73112;HTU21D;61301;51.956;5.876;2023-05-19T06:28:45;16.19;47.11
73112;HTU21D;61301;51.956;5.876;2023-05-19T06:31:11;16.18;46.86
73112;HTU21D;61301;51.956;5.876;2023-05-19T06:33:58;16.25;46.96
73112;HTU21D;61301;51.956;5.876;2023-05-19T06:36:24;16.37;46.76
73112;HTU21D;61301;51.956;5.876;2023-05-19T06:38:52;16.46;46.35
73112;HTU21D;61301;51.956;5.876;2023-05-19T06:41:19;16.52;46.11
73112;HTU21D;61301;51.956;5.876;2023-05-19T06:43:46;16.62;45.76
73112;HTU21D;61301;51.956;5.876;2023-05-19T06:46:13;16.69;45.77
73112;HTU21D;61301;51.956;5.876;2023-05-19T06:48:39;16.77;45.09
73112;HTU21D;61301;51.956;5.876;2023-05-19T06:51:07;16.82;45.00
73112;HTU21D;61301;51.956;5.876;2023-05-19T06:53:36;16.96;44.75
73112;HTU21D;61301;51.956;5.876;2023-05-19T06:56:06;17.03;44.50
73112;HTU21D;61301;51.956;5.876;2023-05-19T06:58:34;17.18;44.81
73112;HTU21D;61301;51.956;5.876;2023-05-19T07:01:04;17.33;44.05
73112;HTU21D;61301;51.956;5.876;2023-05-19T07:03:35;17.44;44.19
73112;HTU21D;61301;51.956;5.876;2023-05-19T07:06:02;17.66;43.77
73112;HTU21D;61301;51.956;5.876;2023-05-19T07:08:30;17.73;43.04
73112;HTU21D;61301;51.956;5.876;2023-05-19T07:10:59;17.81;43.01
73112;HTU21D;61301;51.956;5.876;2023-05-19T07:13:25;17.85;42.77
73112;HTU21D;61301;51.956;5.876;2023-05-19T07:15:52;17.85;42.76
73112;HTU21D;61301;51.956;5.876;2023-05-19T07:18:21;17.89;42.68
73112;HTU21D;61301;51.956;5.876;2023-05-19T07:20:47;18.02;42.27
73112;HTU21D;61301;51.956;5.876;2023-05-19T07:23:13;18.04;42.25
73112;HTU21D;61301;51.956;5.876;2023-05-19T07:25:39;18.05;42.21
73112;HTU21D;61301;51.956;5.876;2023-05-19T07:28:05;18.07;42.10
73112;HTU21D;61301;51.956;5.876;2023-05-19T07:30:31;18.05;42.11
73112;HTU21D;61301;51.956;5.876;2023-05-19T07:32:57;18.06;42.07
73112;HTU21D;61301;51.956;5.876;2023-05-19T07:35:24;18.09;41.91
73112;HTU21D;61301;51.956;5.876;2023-05-19T07:37:51;18.18;42.02
73112;HTU21D;61301;51.956;5.876;2023-05-19T07:40:17;18.20;42.26
73112;HTU21D;61301;51.956;5.876;2023-05-19T07:42:43;18.28;42.36
73112;HTU21D;61301;51.956;5.876;2023-05-19T07:45:09;18.42;42.06
73112;HTU21D;61301;51.956;5.876;2023-05-19T07:47:36;18.49;42.07
73112;HTU21D;61301;51.956;5.876;2023-05-19T07:50:02;18.69;41.74
73112;HTU21D;61301;51.956;5.876;2023-05-19T07:52:29;18.94;41.65
73112;HTU21D;61301;51.956;5.876;2023-05-19T07:54:54;19.20;40.88
73112;HTU21D;61301;51.956;5.876;2023-05-19T07:57:21;19.43;40.18
73112;HTU21D;61301;51.956;5.876;2023-05-19T07:59:47;19.68;39.38
73112;HTU21D;61301;51.956;5.876;2023-05-19T08:02:13;19.85;38.61
73112;HTU21D;61301;51.956;5.876;2023-05-19T08:04:39;19.94;38.40
73112;HTU21D;61301;51.956;5.876;2023-05-19T08:07:05;20.03;37.92
73112;HTU21D;61301;51.956;5.876;2023-05-19T08:09:31;20.17;37.50
73112;HTU21D;61301;51.956;5.876;2023-05-19T08:11:57;20.16;37.31
73112;HTU21D;61301;51.956;5.876;2023-05-19T08:14:23;20.25;36.91
73112;HTU21D;61301;51.956;5.876;2023-05-19T08:16:49;20.40;37.28
73112;HTU21D;61301;51.956;5.876;2023-05-19T08:19:15;20.61;36.87
73112;HTU21D;61301;51.956;5.876;2023-05-19T08:21:41;20.83;35.98
73112;HTU21D;61301;51.956;5.876;2023-05-19T08:24:07;20.92;35.44
73112;HTU21D;61301;51.956;5.876;2023-05-19T08:26:33;20.92;35.11
73112;HTU21D;61301;51.956;5.876;2023-05-19T08:29:00;20.93;35.29
73112;HTU21D;61301;51.956;5.876;2023-05-19T08:31:26;21.02;35.58
73112;HTU21D;61301;51.956;5.876;2023-05-19T08:33:52;21.23;35.50
73112;HTU21D;61301;51.956;5.876;2023-05-19T08:36:18;21.18;35.60
73112;HTU21D;61301;51.956;5.876;2023-05-19T08:38:44;21.39;34.89
73112;HTU21D;61301;51.956;5.876;2023-05-19T08:41:10;21.46;34.22
73112;HTU21D;61301;51.956;5.876;2023-05-19T08:43:36;21.34;34.09
73112;HTU21D;61301;51.956;5.876;2023-05-19T08:46:03;21.30;34.60
73112;HTU21D;61301;51.956;5.876;2023-05-19T08:48:29;21.44;34.73
73112;HTU21D;61301;51.956;5.876;2023-05-19T08:51:19;21.80;34.29
73112;HTU21D;61301;51.956;5.876;2023-05-19T08:53:49;21.95;33.86
73112;HTU21D;61301;51.956;5.876;2023-05-19T08:56:25;22.05;32.20
73112;HTU21D;61301;51.956;5.876;2023-05-19T08:58:51;22.07;32.26
73112;HTU21D;61301;51.956;5.876;2023-05-19T09:01:18;22.20;31.86
73112;HTU21D;61301;51.956;5.876;2023-05-19T09:03:46;22.28;31.07
73112;HTU21D;61301;51.956;5.876;2023-05-19T09:06:14;22.33;30.57
73112;HTU21D;61301;51.956;5.876;2023-05-19T09:08:41;22.36;30.92
73112;HTU21D;61301;51.956;5.876;2023-05-19T09:11:08;22.55;29.09
73112;HTU21D;61301;51.956;5.876;2023-05-19T09:13:34;22.64;29.55
73112;HTU21D;61301;51.956;5.876;2023-05-19T09:16:01;22.61;29.90
73112;HTU21D;61301;51.956;5.876;2023-05-19T09:18:28;22.86;30.32
73112;HTU21D;61301;51.956;5.876;2023-05-19T09:20:56;23.11;29.03
73112;HTU21D;61301;51.956;5.876;2023-05-19T09:23:28;23.32;29.54
73112;HTU21D;61301;51.956;5.876;2023-05-19T09:25:55;23.53;27.33
73112;HTU21D;61301;51.956;5.876;2023-05-19T09:28:29;23.59;27.98
73112;HTU21D;61301;51.956;5.876;2023-05-19T09:31:16;23.80;28.10
73112;HTU21D;61301;51.956;5.876;2023-05-19T09:33:42;23.84;28.00
73112;HTU21D;61301;51.956;5.876;2023-05-19T09:36:08;23.99;27.61
73112;HTU21D;61301;51.956;5.876;2023-05-19T09:38:37;23.98;26.93
73112;HTU21D;61301;51.956;5.876;2023-05-19T09:41:04;23.96;26.66
73112;HTU21D;61301;51.956;5.876;2023-05-19T09:43:31;23.98;27.58
73112;HTU21D;61301;51.956;5.876;2023-05-19T09:48:34;24.16;26.31
73112;HTU21D;61301;51.956;5.876;2023-05-19T09:51:02;24.21;26.07
73112;HTU21D;61301;51.956;5.876;2023-05-19T09:53:31;24.23;25.75
73112;HTU21D;61301;51.956;5.876;2023-05-19T09:56:00;24.38;26.23
73112;HTU21D;61301;51.956;5.876;2023-05-19T09:58:30;24.40;26.23
73112;HTU21D;61301;51.956;5.876;2023-05-19T10:01:00;24.46;26.71
73112;HTU21D;61301;51.956;5.876;2023-05-19T10:03:26;24.41;25.31
73112;HTU21D;61301;51.956;5.876;2023-05-19T10:05:53;24.33;26.24
73112;HTU21D;61301;51.956;5.876;2023-05-19T10:08:20;24.43;26.61
73112;HTU21D;61301;51.956;5.876;2023-05-19T10:10:47;24.64;26.33
73112;HTU21D;61301;51.956;5.876;2023-05-19T10:13:14;24.69;26.68
73112;HTU21D;61301;51.956;5.876;2023-05-19T10:15:41;24.76;26.48
73112;HTU21D;61301;51.956;5.876;2023-05-19T10:18:11;24.77;25.66
73112;HTU21D;61301;51.956;5.876;2023-05-19T10:20:37;24.49;25.84
73112;HTU21D;61301;51.956;5.876;2023-05-19T10:23:04;24.48;26.08
73112;HTU21D;61301;51.956;5.876;2023-05-19T10:25:32;24.62;25.96
73112;HTU21D;61301;51.956;5.876;2023-05-19T10:28:03;24.79;25.69
73112;HTU21D;61301;51.956;5.876;2023-05-19T10:30:37;24.69;25.78
73112;HTU21D;61301;51.956;5.876;2023-05-19T10:33:07;24.54;25.62
73112;HTU21D;61301;51.956;5.876;2023-05-19T10:40:50;24.77;25.70
73112;HTU21D;61301;51.956;5.876;2023-05-19T10:43:40;24.88;26.78
73112;HTU21D;61301;51.956;5.876;2023-05-19T10:46:09;25.01;26.36
73112;HTU21D;61301;51.956;5.876;2023-05-19T10:48:35;25.14;25.07
73112;HTU21D;61301;51.956;5.876;2023-05-19T10:51:02;25.19;25.56
73112;HTU21D;61301;51.956;5.876;2023-05-19T10:53:32;25.19;24.64
73112;HTU21D;61301;51.956;5.876;2023-05-19T10:56:00;25.12;25.71
73112;HTU21D;61301;51.956;5.876;2023-05-19T11:03:55;25.51;24.29
73112;HTU21D;61301;51.956;5.876;2023-05-19T11:08:57;25.37;24.68
73112;HTU21D;61301;51.956;5.876;2023-05-19T11:11:23;25.59;24.19
73112;HTU21D;61301;51.956;5.876;2023-05-19T11:13:53;25.67;23.91
73112;HTU21D;61301;51.956;5.876;2023-05-19T11:16:27;25.60;24.08
73112;HTU21D;61301;51.956;5.876;2023-05-19T11:18:55;25.67;24.47
73112;HTU21D;61301;51.956;5.876;2023-05-19T11:21:23;25.88;24.82
73112;HTU21D;61301;51.956;5.876;2023-05-19T11:23:50;26.20;24.24
73112;HTU21D;61301;51.956;5.876;2023-05-19T11:26:40;26.30;23.56
73112;HTU21D;61301;51.956;5.876;2023-05-19T11:29:08;26.56;23.27
73112;HTU21D;61301;51.956;5.876;2023-05-19T11:31:35;26.49;22.34
73112;HTU21D;61301;51.956;5.876;2023-05-19T11:34:01;26.36;22.66
73112;HTU21D;61301;51.956;5.876;2023-05-19T11:36:30;26.34;22.53
73112;HTU21D;61301;51.956;5.876;2023-05-19T11:38:58;26.39;22.86
73112;HTU21D;61301;51.956;5.876;2023-05-19T11:41:24;26.24;22.95
73112;HTU21D;61301;51.956;5.876;2023-05-19T11:43:53;26.06;22.56
73112;HTU21D;61301;51.956;5.876;2023-05-19T11:46:18;26.15;23.14
73112;HTU21D;61301;51.956;5.876;2023-05-19T11:48:46;26.22;22.97
73112;HTU21D;61301;51.956;5.876;2023-05-19T11:51:12;26.38;23.15
73112;HTU21D;61301;51.956;5.876;2023-05-19T11:53:38;26.51;22.47
73112;HTU21D;61301;51.956;5.876;2023-05-19T11:56:05;26.58;22.64
73112;HTU21D;61301;51.956;5.876;2023-05-19T11:58:31;26.78;22.97
73112;HTU21D;61301;51.956;5.876;2023-05-19T12:01:02;27.14;21.98
73112;HTU21D;61301;51.956;5.876;2023-05-19T12:03:28;26.91;21.26
73112;HTU21D;61301;51.956;5.876;2023-05-19T12:05:57;26.77;21.61
73112;HTU21D;61301;51.956;5.876;2023-05-19T12:08:23;26.76;21.73
73112;HTU21D;61301;51.956;5.876;2023-05-19T12:10:51;26.72;21.84
73112;HTU21D;61301;51.956;5.876;2023-05-19T12:13:18;26.37;22.69
73112;HTU21D;61301;51.956;5.876;2023-05-19T12:15:44;26.50;22.95
73112;HTU21D;61301;51.956;5.876;2023-05-19T12:18:10;26.72;22.96
73112;HTU21D;61301;51.956;5.876;2023-05-19T12:20:36;27.13;22.45
73112;HTU21D;61301;51.956;5.876;2023-05-19T12:23:02;27.16;21.99
73112;HTU21D;61301;51.956;5.876;2023-05-19T12:25:28;27.26;21.41
73112;HTU21D;61301;51.956;5.876;2023-05-19T12:28:01;27.23;21.50
73112;HTU21D;61301;51.956;5.876;2023-05-19T12:30:30;27.36;22.30
73112;HTU21D;61301;51.956;5.876;2023-05-19T12:32:56;27.55;21.74
73112;HTU21D;61301;51.956;5.876;2023-05-19T12:35:27;27.46;21.30
73112;HTU21D;61301;51.956;5.876;2023-05-19T12:37:53;27.19;21.60
73112;HTU21D;61301;51.956;5.876;2023-05-19T12:40:20;27.10;21.25
73112;HTU21D;61301;51.956;5.876;2023-05-19T12:42:46;27.01;21.96
73112;HTU21D;61301;51.956;5.876;2023-05-19T12:45:13;26.86;21.48
73112;HTU21D;61301;51.956;5.876;2023-05-19T12:47:39;26.70;21.55
73112;HTU21D;61301;51.956;5.876;2023-05-19T12:50:07;26.81;21.22
73112;HTU21D;61301;51.956;5.876;2023-05-19T12:52:41;26.78;21.14
73112;HTU21D;61301;51.956;5.876;2023-05-19T12:55:08;26.79;21.05
73112;HTU21D;61301;51.956;5.876;2023-05-19T12:57:37;26.68;20.73
73112;HTU21D;61301;51.956;5.876;2023-05-19T13:00:12;26.63;21.68
73112;HTU21D;61301;51.956;5.876;2023-05-19T13:05:20;26.64;22.46
73112;HTU21D;61301;51.956;5.876;2023-05-19T13:08:08;26.71;22.29
73112;HTU21D;61301;51.956;5.876;2023-05-19T13:10:35;26.85;22.33
73112;HTU21D;61301;51.956;5.876;2023-05-19T13:13:01;26.94;22.28
73112;HTU21D;61301;51.956;5.876;2023-05-19T13:15:29;26.84;22.03
73112;HTU21D;61301;51.956;5.876;2023-05-19T13:17:56;26.67;22.21
73112;HTU21D;61301;51.956;5.876;2023-05-19T13:20:23;26.73;22.20
73112;HTU21D;61301;51.956;5.876;2023-05-19T13:22:51;26.84;21.82
73112;HTU21D;61301;51.956;5.876;2023-05-19T13:25:18;26.81;21.56
73112;HTU21D;61301;51.956;5.876;2023-05-19T13:27:44;26.94;21.92
73112;HTU21D;61301;51.956;5.876;2023-05-19T13:30:11;27.07;21.66
73112;HTU21D;61301;51.956;5.876;2023-05-19T13:32:37;27.00;22.62
73112;HTU21D;61301;51.956;5.876;2023-05-19T13:35:03;26.83;22.59
73112;HTU21D;61301;51.956;5.876;2023-05-19T13:37:30;26.79;22.66
73112;HTU21D;61301;51.956;5.876;2023-05-19T13:39:56;26.78;22.61
73112;HTU21D;61301;51.956;5.876;2023-05-19T13:42:23;26.76;23.04
73112;HTU21D;61301;51.956;5.876;2023-05-19T13:44:52;26.93;23.28
73112;HTU21D;61301;51.956;5.876;2023-05-19T13:47:18;26.98;22.59
73112;HTU21D;61301;51.956;5.876;2023-05-19T13:49:44;26.80;22.19
73112;HTU21D;61301;51.956;5.876;2023-05-19T13:52:11;26.60;21.92
73112;HTU21D;61301;51.956;5.876;2023-05-19T13:54:37;26.55;22.38
73112;HTU21D;61301;51.956;5.876;2023-05-19T13:57:03;26.96;22.47
73112;HTU21D;61301;51.956;5.876;2023-05-19T13:59:31;27.26;22.39
73112;HTU21D;61301;51.956;5.876;2023-05-19T14:01:57;27.43;21.38
73112;HTU21D;61301;51.956;5.876;2023-05-19T14:04:23;27.44;21.36
73112;HTU21D;61301;51.956;5.876;2023-05-19T14:06:52;27.57;21.29
73112;HTU21D;61301;51.956;5.876;2023-05-19T14:09:19;27.74;21.27
73112;HTU21D;61301;51.956;5.876;2023-05-19T14:11:46;27.81;21.33
73112;HTU21D;61301;51.956;5.876;2023-05-19T14:14:12;27.85;21.08
73112;HTU21D;61301;51.956;5.876;2023-05-19T14:16:39;28.03;21.32
73112;HTU21D;61301;51.956;5.876;2023-05-19T14:19:06;28.15;20.60
73112;HTU21D;61301;51.956;5.876;2023-05-19T14:21:32;28.00;19.74
73112;HTU21D;61301;51.956;5.876;2023-05-19T14:23:58;27.97;20.33
73112;HTU21D;61301;51.956;5.876;2023-05-19T14:26:24;28.19;20.28
73112;HTU21D;61301;51.956;5.876;2023-05-19T14:28:50;28.37;20.78
73112;HTU21D;61301;51.956;5.876;2023-05-19T14:31:16;28.68;20.70
73112;HTU21D;61301;51.956;5.876;2023-05-19T14:33:42;28.89;20.12
73112;HTU21D;61301;51.956;5.876;2023-05-19T14:36:09;28.91;19.48
73112;HTU21D;61301;51.956;5.876;2023-05-19T14:38:35;28.90;18.73
73112;HTU21D;61301;51.956;5.876;2023-05-19T14:41:01;28.62;18.58
73112;HTU21D;61301;51.956;5.876;2023-05-19T14:43:28;28.11;19.54
73112;HTU21D;61301;51.956;5.876;2023-05-19T14:45:55;27.95;20.66
73112;HTU21D;61301;51.956;5.876;2023-05-19T14:48:21;28.26;20.30
73112;HTU21D;61301;51.956;5.876;2023-05-19T14:50:47;28.42;19.99
73112;HTU21D;61301;51.956;5.876;2023-05-19T14:53:13;28.57;19.99
73112;HTU21D;61301;51.956;5.876;2023-05-19T14:55:39;28.35;19.83
73112;HTU21D;61301;51.956;5.876;2023-05-19T14:58:05;28.21;19.87
73112;HTU21D;61301;51.956;5.876;2023-05-19T15:00:31;27.97;20.02
73112;HTU21D;61301;51.956;5.876;2023-05-19T15:02:57;27.81;20.08
73112;HTU21D;61301;51.956;5.876;2023-05-19T15:05:23;27.81;20.28
73112;HTU21D;61301;51.956;5.876;2023-05-19T15:07:49;27.98;20.32
73112;HTU21D;61301;51.956;5.876;2023-05-19T15:10:17;27.97;20.11
73112;HTU21D;61301;51.956;5.876;2023-05-19T15:12:45;27.64;19.75
73112;HTU21D;61301;51.956;5.876;2023-05-19T15:15:11;27.29;20.42
73112;HTU21D;61301;51.956;5.876;2023-05-19T15:17:37;27.29;20.68
73112;HTU21D;61301;51.956;5.876;2023-05-19T15:20:04;27.46;20.90
73112;HTU21D;61301;51.956;5.876;2023-05-19T15:22:30;27.81;20.60
73112;HTU21D;61301;51.956;5.876;2023-05-19T15:24:56;28.08;20.63
73112;HTU21D;61301;51.956;5.876;2023-05-19T15:27:22;28.42;20.41
73112;HTU21D;61301;51.956;5.876;2023-05-19T15:29:48;28.40;19.15
73112;HTU21D;61301;51.956;5.876;2023-05-19T15:32:14;28.21;18.75
73112;HTU21D;61301;51.956;5.876;2023-05-19T15:34:40;27.87;19.44
73112;HTU21D;61301;51.956;5.876;2023-05-19T15:37:06;27.65;20.25
73112;HTU21D;61301;51.956;5.876;2023-05-19T15:39:32;27.39;20.22
73112;HTU21D;61301;51.956;5.876;2023-05-19T15:41:59;27.24;20.25
73112;HTU21D;61301;51.956;5.876;2023-05-19T15:44:25;27.13;20.81
73112;HTU21D;61301;51.956;5.876;2023-05-19T15:46:51;27.20;20.45
73112;HTU21D;61301;51.956;5.876;2023-05-19T15:49:17;27.34;20.12